Time;durP1;ratioP1;P1;durP2;ratioP2;P2;SDS_P1;SDS_P2;PMS_P1;PMS_P2;Temp;Humidity;BMP_temperature;BMP_pressure;BME280_temperature;BME280_humidity;BME280_pressure;Samples;Min_cycle;Max_cycle;Signal;HPM_P1;HPM_P2
2023/10/11 00:02:55;;;;;;;0.10;0.10;;;;;;;;;;4959735;28;20042;-85
2023/10/11 00:05:22;;;;;;;0.17;0.17;;;;;;;;;;4943675;28;20042;-85
2023/10/11 00:07:48;;;;;;;0.10;0.10;;;;;;;;;;4943700;28;20089;-85
2023/10/11 00:10:22;;;;;;;0.10;0.10;;;;;;;;;;4943733;28;20045;-86
2023/10/11 00:12:50;;;;;;;0.10;0.10;;;;;;;;;;4960900;28;20050;-86
2023/10/11 00:15:19;;;;;;;0.10;0.10;;;;;;;;;;4977046;28;20050;-86
2023/10/11 00:17:46;;;;;;;0.20;0.20;;;;;;;;;;4959753;28;20039;-86
2023/10/11 00:22:57;;;;;;;0.10;0.10;;;;;;;;;;4945713;28;20050;-87
2023/10/11 00:25:24;;;;;;;0.20;0.20;;;;;;;;;;4943509;28;20065;-86
2023/10/11 00:27:51;;;;;;;0.10;0.10;;;;;;;;;;4959401;28;20046;-86
2023/10/11 00:30:17;;;;;;;0.10;0.10;;;;;;;;;;4959589;28;20066;-86
2023/10/11 00:32:46;;;;;;;0.10;0.10;;;;;;;;;;4959643;28;20072;-86
2023/10/11 00:35:18;;;;;;;0.10;0.10;;;;;;;;;;4959096;28;20118;-86
2023/10/11 00:37:51;;;;;;;0.30;0.30;;;;;;;;;;4944074;28;20089;-86
2023/10/11 00:40:25;;;;;;;0.10;0.10;;;;;;;;;;4944190;28;20511;-86
2023/10/11 00:42:52;;;;;;;0.10;0.10;;;;;;;;;;4927988;28;20057;-86
2023/10/11 00:45:22;;;;;;;0.10;0.10;;;;;;;;;;4943011;28;20183;-85
2023/10/11 00:47:51;;;;;;;0.10;0.10;;;;;;;;;;4959005;28;20050;-86
2023/10/11 00:50:17;;;;;;;0.10;0.10;;;;;;;;;;4942991;28;20101;-86
2023/10/11 00:52:45;;;;;;;0.10;0.10;;;;;;;;;;4943013;28;20142;-86
2023/10/11 00:55:17;;;;;;;0.10;0.10;;;;;;;;;;4958873;28;20062;-85
2023/10/11 00:57:47;;;;;;;0.13;0.13;;;;;;;;;;4958836;28;20046;-86
2023/10/11 01:00:16;;;;;;;0.10;0.10;;;;;;;;;;4942774;28;20042;-85
2023/10/11 01:02:42;;;;;;;0.10;0.10;;;;;;;;;;4958387;28;20046;-85
2023/10/11 01:05:08;;;;;;;0.30;0.30;;;;;;;;;;4942708;28;20039;-85
2023/10/11 01:07:37;;;;;;;0.20;0.20;;;;;;;;;;4959004;28;20101;-86
2023/10/11 01:10:04;;;;;;;0.20;0.20;;;;;;;;;;4926998;28;20078;-85
2023/10/11 01:12:30;;;;;;;0.68;0.20;;;;;;;;;;4957958;28;20054;-85
2023/10/11 01:14:59;;;;;;;0.15;0.15;;;;;;;;;;4942277;28;20105;-86
2023/10/11 01:17:26;;;;;;;0.10;0.10;;;;;;;;;;4975893;28;20038;-86
2023/10/11 01:19:53;;;;;;;0.22;0.20;;;;;;;;;;4958395;28;20523;-86
2023/10/11 01:22:19;;;;;;;0.10;0.10;;;;;;;;;;4942533;28;20125;-86
2023/10/11 01:24:47;;;;;;;0.13;0.13;;;;;;;;;;4958317;28;20040;-86
2023/10/11 01:27:16;;;;;;;0.20;0.20;;;;;;;;;;4942263;28;20561;-85
2023/10/11 01:29:43;;;;;;;0.20;0.20;;;;;;;;;;4958248;28;20038;-86
2023/10/11 01:32:10;;;;;;;0.15;0.15;;;;;;;;;;4942447;28;20467;-86
2023/10/11 01:34:36;;;;;;;0.10;0.10;;;;;;;;;;4942509;28;20459;-86
2023/10/11 01:37:02;;;;;;;0.10;0.10;;;;;;;;;;4942483;28;20082;-86
2023/10/11 01:39:32;;;;;;;0.32;0.32;;;;;;;;;;4958045;28;20050;-85
2023/10/11 01:41:58;;;;;;;0.75;0.75;;;;;;;;;;4958071;28;20392;-85
2023/10/11 01:44:25;;;;;;;0.20;0.20;;;;;;;;;;4957671;28;20042;-85
2023/10/11 01:46:51;;;;;;;0.10;0.10;;;;;;;;;;4942160;28;20047;-85
2023/10/11 01:49:17;;;;;;;0.10;0.10;;;;;;;;;;4941909;28;20035;-86
2023/10/11 01:51:46;;;;;;;0.10;0.10;;;;;;;;;;4941867;28;20466;-85
2023/10/11 01:54:12;;;;;;;0.10;0.10;;;;;;;;;;4941652;28;20043;-86
2023/10/11 01:56:41;;;;;;;0.20;0.20;;;;;;;;;;4958113;28;20039;-86
2023/10/11 01:59:12;;;;;;;0.10;0.10;;;;;;;;;;4941733;28;20149;-86
2023/10/11 02:01:41;;;;;;;0.10;0.10;;;;;;;;;;4958210;28;20126;-85
2023/10/11 02:04:16;;;;;;;0.52;0.52;;;;;;;;;;4957416;28;20050;-86
2023/10/11 02:06:42;;;;;;;0.52;0.50;;;;;;;;;;4942700;28;20506;-85
2023/10/11 02:09:09;;;;;;;0.10;0.10;;;;;;;;;;4941418;28;20045;-84
2023/10/11 02:11:36;;;;;;;0.10;0.10;;;;;;;;;;4941579;28;20121;-85
2023/10/11 02:14:03;;;;;;;0.28;0.28;;;;;;;;;;4957404;28;20057;-85
2023/10/11 02:16:30;;;;;;;0.10;0.10;;;;;;;;;;4941486;28;20094;-84
2023/10/11 02:18:59;;;;;;;0.10;0.10;;;;;;;;;;4974614;28;20389;-85
2023/10/11 02:21:29;;;;;;;0.10;0.10;;;;;;;;;;4974530;28;20047;-85
2023/10/11 02:23:56;;;;;;;0.10;0.10;;;;;;;;;;4940329;28;20121;-84
2023/10/11 02:26:34;;;;;;;0.10;0.10;;;;;;;;;;4941357;28;20502;-85
2023/10/11 02:29:06;;;;;;;0.10;0.10;;;;;;;;;;4957202;28;20039;-84
2023/10/11 02:31:35;;;;;;;0.10;0.10;;;;;;;;;;4941118;28;20105;-84
2023/10/11 02:34:12;;;;;;;0.10;0.10;;;;;;;;;;4956919;28;20061;-84
2023/10/11 02:36:41;;;;;;;0.10;0.10;;;;;;;;;;4943449;28;20125;-85
2023/10/11 02:39:07;;;;;;;0.10;0.10;;;;;;;;;;4941325;28;20050;-85
2023/10/11 02:41:37;;;;;;;0.10;0.10;;;;;;;;;;4974232;28;20039;-84
2023/10/11 02:44:03;;;;;;;0.20;0.20;;;;;;;;;;4925249;28;20050;-85
2023/10/11 02:46:33;;;;;;;0.32;0.17;;;;;;;;;;4956527;28;20105;-86
2023/10/11 02:49:18;;;;;;;0.10;0.10;;;;;;;;;;4940745;28;20047;-85
2023/10/11 02:51:52;;;;;;;0.20;0.20;;;;;;;;;;4956743;28;20119;-85
2023/10/11 02:54:18;;;;;;;0.45;0.45;;;;;;;;;;4940893;28;20049;-85
2023/10/11 02:56:47;;;;;;;0.10;0.10;;;;;;;;;;4956585;28;20039;-85
2023/10/11 02:59:24;;;;;;;0.28;0.28;;;;;;;;;;4956488;28;20225;-85
2023/10/11 03:02:00;;;;;;;0.28;0.28;;;;;;;;;;4925936;28;20045;-85
2023/10/11 03:04:39;;;;;;;0.20;0.20;;;;;;;;;;4956553;28;20043;-85
2023/10/11 03:07:10;;;;;;;0.10;0.10;;;;;;;;;;4941145;28;20050;-85
2023/10/11 03:09:44;;;;;;;0.10;0.10;;;;;;;;;;4956434;28;20088;-85
2023/10/11 03:12:24;;;;;;;0.57;0.57;;;;;;;;;;4956298;28;20054;-85
2023/10/11 03:14:54;;;;;;;0.10;0.10;;;;;;;;;;4973484;28;20042;-85
2023/10/11 03:17:20;;;;;;;0.10;0.10;;;;;;;;;;4973603;28;20110;-85
2023/10/11 03:19:49;;;;;;;0.10;0.10;;;;;;;;;;4956146;28;20052;-85
2023/10/11 03:22:20;;;;;;;0.15;0.15;;;;;;;;;;4940841;28;20041;-85
2023/10/11 03:25:12;;;;;;;0.20;0.20;;;;;;;;;;4940781;28;20039;-85
2023/10/11 03:27:48;;;;;;;0.17;0.17;;;;;;;;;;4943257;28;20046;-85
2023/10/11 03:30:15;;;;;;;0.17;0.17;;;;;;;;;;4941232;28;20121;-85
2023/10/11 03:32:44;;;;;;;0.10;0.10;;;;;;;;;;4955986;28;20054;-85
2023/10/11 03:35:16;;;;;;;0.20;0.20;;;;;;;;;;4973353;28;20047;-85
2023/10/11 03:37:57;;;;;;;0.13;0.13;;;;;;;;;;4940815;28;20121;-85
2023/10/11 03:40:34;;;;;;;0.10;0.10;;;;;;;;;;4967357;28;20524;-85
2023/10/11 03:43:01;;;;;;;0.20;0.20;;;;;;;;;;4973388;28;20046;-85
2023/10/11 03:45:27;;;;;;;0.10;0.10;;;;;;;;;;4924147;28;20133;-85
2023/10/11 03:47:54;;;;;;;0.10;0.10;;;;;;;;;;4956142;28;20127;-85
2023/10/11 03:50:32;;;;;;;0.10;0.10;;;;;;;;;;4940078;28;20042;-85
2023/10/11 03:53:10;;;;;;;0.10;0.10;;;;;;;;;;4955959;28;20046;-85
2023/10/11 03:55:49;;;;;;;0.10;0.10;;;;;;;;;;4941055;28;20122;-85
2023/10/11 04:01:12;;;;;;;0.10;0.10;;;;;;;;;;4973320;28;20216;-85
2023/10/11 04:03:41;;;;;;;0.45;0.45;;;;;;;;;;4925744;28;20105;-85
2023/10/11 04:06:14;;;;;;;0.17;0.17;;;;;;;;;;4955765;28;20074;-85
2023/10/11 04:08:41;;;;;;;;;;;;;;;;;;4973707;28;20046;-85
2023/10/11 04:11:29;;;;;;;0.10;0.10;;;;;;;;;;4955870;28;19917;-85
2023/10/11 04:13:55;;;;;;;0.32;0.28;;;;;;;;;;4955532;28;20130;-85
2023/10/11 04:16:23;;;;;;;0.10;0.10;;;;;;;;;;4939742;28;20269;-85
2023/10/11 04:18:52;;;;;;;0.10;0.10;;;;;;;;;;4939676;28;20043;-85
2023/10/11 04:21:37;;;;;;;0.10;0.10;;;;;;;;;;4940005;28;20100;-85
2023/10/11 04:24:06;;;;;;;0.45;0.30;;;;;;;;;;4956001;28;20135;-84
2023/10/11 04:29:06;;;;;;;0.20;0.20;;;;;;;;;;4956023;28;20046;-85
2023/10/11 04:31:54;;;;;;;0.20;0.20;;;;;;;;;;4940692;28;20503;-86
2023/10/11 04:34:23;;;;;;;1.77;0.75;;;;;;;;;;4955594;28;20122;-85
2023/10/11 04:36:51;;;;;;;0.10;0.10;;;;;;;;;;4939569;28;20042;-84
2023/10/11 04:39:27;;;;;;;0.10;0.10;;;;;;;;;;4972618;28;20071;-85
2023/10/11 04:41:56;;;;;;;0.20;0.20;;;;;;;;;;4972802;28;20042;-85
2023/10/11 04:44:23;;;;;;;0.22;0.22;;;;;;;;;;4923563;28;20290;-85
2023/10/11 04:46:57;;;;;;;0.20;0.20;;;;;;;;;;4956894;28;20049;-85
2023/10/11 04:49:24;;;;;;;0.10;0.10;;;;;;;;;;4958773;28;20345;-85
2023/10/11 04:51:55;;;;;;;0.10;0.10;;;;;;;;;;4958803;28;20547;-85
2023/10/11 04:54:22;;;;;;;0.20;0.20;;;;;;;;;;4958759;28;20058;-85
2023/10/11 04:59:20;;;;;;;0.10;0.10;;;;;;;;;;4942732;28;20510;-85
2023/10/11 05:04:14;;;;;;;0.25;0.25;;;;;;;;;;4942774;28;20046;-85
2023/10/11 05:06:40;;;;;;;0.10;0.10;;;;;;;;;;4976099;28;20042;-84
2023/10/11 05:09:29;;;;;;;0.20;0.20;;;;;;;;;;4958799;28;20468;-85
2023/10/11 05:12:06;;;;;;;0.10;0.10;;;;;;;;;;4929512;28;20049;-85
2023/10/11 05:14:39;;;;;;;0.10;0.10;;;;;;;;;;4958866;28;20038;-84
2023/10/11 05:19:56;;;;;;;0.22;0.22;;;;;;;;;;4958415;28;19918;-85
2023/10/11 05:32:49;;;;;;;0.20;0.20;;;;;;;;;;4975532;28;20047;-84
2023/10/11 05:51:26;;;;;;;0.10;0.10;;;;;;;;;;4957809;28;20046;-85
2023/10/11 05:53:56;;;;;;;0.10;0.10;;;;;;;;;;4941565;28;20078;-86
2023/10/11 05:56:23;;;;;;;0.10;0.10;;;;;;;;;;4958015;28;20041;-85
2023/10/11 05:58:55;;;;;;;0.30;0.30;;;;;;;;;;4956399;28;20049;-85
2023/10/11 06:01:21;;;;;;;0.20;0.20;;;;;;;;;;4957891;28;20404;-84
2023/10/11 06:03:55;;;;;;;0.10;0.10;;;;;;;;;;4941704;28;20039;-84
2023/10/11 06:06:32;;;;;;;0.65;0.60;;;;;;;;;;4974815;28;20046;-85
2023/10/11 06:08:58;;;;;;;0.38;0.38;;;;;;;;;;4975084;28;20654;-85
2023/10/11 06:11:29;;;;;;;0.10;0.10;;;;;;;;;;4941529;28;20043;-84
2023/10/11 06:13:55;;;;;;;0.60;0.38;;;;;;;;;;4941575;28;20068;-85
2023/10/11 06:16:24;;;;;;;0.65;0.20;;;;;;;;;;4941358;28;20101;-85
2023/10/11 06:18:57;;;;;;;0.10;0.10;;;;;;;;;;4941244;28;20122;-85
2023/10/11 06:21:33;;;;;;;;;;;;;;;;;;4957717;28;20047;-85
2023/10/11 06:23:59;;;;;;;0.20;0.20;;;;;;;;;;4974465;28;20012;-85
2023/10/11 06:26:28;;;;;;;0.10;0.10;;;;;;;;;;4941269;28;20076;-85
2023/10/11 06:29:03;;;;;;;0.10;0.10;;;;;;;;;;4941576;28;20534;-85
2023/10/11 06:31:43;;;;;;;0.10;0.10;;;;;;;;;;4941270;28;20428;-85
2023/10/11 06:34:15;;;;;;;0.13;0.13;;;;;;;;;;4957147;28;20129;-87
2023/10/11 06:36:51;;;;;;;0.38;0.38;;;;;;;;;;4941832;28;20046;-87
2023/10/11 06:42:22;;;;;;;0.10;0.10;;;;;;;;;;4945791;28;20047;-86
2023/10/11 06:44:48;;;;;;;0.13;0.13;;;;;;;;;;4925072;28;20067;-86
2023/10/11 06:47:15;;;;;;;0.38;0.38;;;;;;;;;;4925140;28;20042;-86
2023/10/11 06:49:44;;;;;;;0.10;0.10;;;;;;;;;;4941070;28;20467;-86
2023/10/11 06:52:11;;;;;;;0.10;0.10;;;;;;;;;;4941347;28;20153;-85
2023/10/11 06:54:46;;;;;;;0.10;0.10;;;;;;;;;;4941096;28;20129;-85
2023/10/11 06:57:20;;;;;;;0.10;0.10;;;;;;;;;;4956803;28;20043;-87
2023/10/11 06:59:50;;;;;;;0.20;0.20;;;;;;;;;;4940814;28;20046;-86
2023/10/11 07:02:31;;;;;;;0.38;0.38;;;;;;;;;;4940764;28;20495;-86
2023/10/11 07:05:00;;;;;;;0.43;0.28;;;;;;;;;;4956339;28;20046;-86
2023/10/11 07:07:30;;;;;;;0.20;0.20;;;;;;;;;;4940393;28;20047;-86
2023/10/11 07:09:56;;;;;;;0.10;0.10;;;;;;;;;;4957046;28;20398;-88
2023/10/11 07:12:39;;;;;;;0.20;0.20;;;;;;;;;;4956390;28;20096;-86
2023/10/11 07:15:07;;;;;;;0.10;0.10;;;;;;;;;;4926393;28;20381;-85
2023/10/11 07:17:33;;;;;;;0.10;0.10;;;;;;;;;;4925055;28;20391;-86
2023/10/11 07:20:00;;;;;;;0.95;0.95;;;;;;;;;;4940333;28;20547;-85
2023/10/11 07:22:26;;;;;;;0.10;0.10;;;;;;;;;;4973351;28;20046;-84
2023/10/11 07:24:59;;;;;;;0.10;0.10;;;;;;;;;;4940374;28;20105;-84
2023/10/11 07:27:37;;;;;;;0.20;0.20;;;;;;;;;;4975704;28;20117;-83
2023/10/11 07:30:16;;;;;;;0.10;0.10;;;;;;;;;;4975401;28;20043;-85
2023/10/11 07:32:42;;;;;;;0.10;0.10;;;;;;;;;;4975940;28;20125;-86
2023/10/11 07:35:17;;;;;;;0.20;0.20;;;;;;;;;;4976395;28;20369;-86
2023/10/11 07:37:44;;;;;;;0.10;0.10;;;;;;;;;;4993418;28;20440;-86
2023/10/11 07:40:13;;;;;;;0.10;0.10;;;;;;;;;;4975523;28;20038;-85
2023/10/11 07:42:39;;;;;;;0.30;0.30;;;;;;;;;;4943783;28;20043;-86
2023/10/11 07:45:12;;;;;;;0.30;0.30;;;;;;;;;;4975240;28;20093;-85
2023/10/11 07:47:51;;;;;;;0.10;0.10;;;;;;;;;;4960181;28;20042;-85
2023/10/11 07:50:22;;;;;;;0.20;0.20;;;;;;;;;;4960085;28;20121;-85
2023/10/11 07:52:48;;;;;;;0.20;0.20;;;;;;;;;;4939872;28;20046;-85
2023/10/11 07:55:14;;;;;;;0.10;0.10;;;;;;;;;;4955621;28;20492;-85
2023/10/11 07:57:44;;;;;;;0.17;0.17;;;;;;;;;;4956349;28;20046;-85
2023/10/11 08:00:17;;;;;;;0.32;0.32;;;;;;;;;;4955627;28;20138;-84
2023/10/11 08:02:43;;;;;;;;;;;;;;;;;;4955257;28;20307;-85
2023/10/11 08:05:14;;;;;;;0.20;0.20;;;;;;;;;;4969877;28;19918;-85
2023/10/11 08:07:40;;;;;;;0.10;0.10;;;;;;;;;;4959228;28;20049;-85
2023/10/11 08:12:52;;;;;;;0.20;0.20;;;;;;;;;;4958794;28;20062;-85
2023/10/11 08:15:21;;;;;;;0.20;0.20;;;;;;;;;;4939375;28;20039;-86
2023/10/11 08:17:47;;;;;;;0.47;0.47;;;;;;;;;;4939152;28;20050;-84
2023/10/11 08:20:15;;;;;;;0.70;0.47;;;;;;;;;;4955760;28;20046;-84
2023/10/11 08:22:41;;;;;;;0.20;0.20;;;;;;;;;;4942800;28;20062;-84
2023/10/11 08:25:12;;;;;;;0.10;0.10;;;;;;;;;;4959248;28;20213;-85
2023/10/11 08:27:39;;;;;;;0.20;0.20;;;;;;;;;;4976604;28;20428;-84
2023/10/11 08:30:09;;;;;;;0.20;0.20;;;;;;;;;;4943405;28;20038;-84
2023/10/11 08:32:42;;;;;;;0.10;0.10;;;;;;;;;;4976729;28;20105;-85
2023/10/11 08:35:26;;;;;;;;;;;;;;;;;;4928530;28;20130;-84
2023/10/11 08:37:53;;;;;;;0.13;0.13;;;;;;;;;;4959071;28;20376;-84
2023/10/11 08:40:23;;;;;;;0.30;0.30;;;;;;;;;;4958720;28;20055;-84
2023/10/11 08:42:49;;;;;;;0.30;0.20;;;;;;;;;;4976454;28;20073;-84
2023/10/11 08:45:20;;;;;;;0.20;0.20;;;;;;;;;;4940795;28;20553;-84
2023/10/11 08:47:46;;;;;;;0.70;0.22;;;;;;;;;;4948135;28;20042;-85
2023/10/11 08:50:17;;;;;;;0.55;0.20;;;;;;;;;;4957758;28;20039;-84
2023/10/11 08:52:43;;;;;;;0.17;0.17;;;;;;;;;;4956885;29;20047;-84
2023/10/11 08:55:12;;;;;;;0.47;0.47;;;;;;;;;;4940096;28;20137;-83
2023/10/11 08:57:38;;;;;;;0.40;0.40;;;;;;;;;;4943184;28;20086;-84
2023/10/11 09:00:17;;;;;;;0.28;0.28;;;;;;;;;;4942530;28;20097;-84
2023/10/11 09:02:48;;;;;;;0.77;0.25;;;;;;;;;;4955065;28;20062;-85
2023/10/11 09:05:29;;;;;;;0.43;0.43;;;;;;;;;;4943363;28;20053;-84
2023/10/11 09:07:55;;;;;;;0.30;0.30;;;;;;;;;;4976081;28;20039;-85
2023/10/11 09:10:23;;;;;;;0.10;0.10;;;;;;;;;;4942448;28;20054;-86
2023/10/11 09:12:49;;;;;;;0.15;0.15;;;;;;;;;;4958698;28;20049;-86
2023/10/11 09:15:16;;;;;;;0.32;0.25;;;;;;;;;;4957882;28;20043;-85
2023/10/11 09:17:42;;;;;;;0.20;0.20;;;;;;;;;;4975807;28;20043;-86
2023/10/11 09:20:23;;;;;;;0.30;0.20;;;;;;;;;;4958077;28;20039;-85
2023/10/11 09:22:55;;;;;;;0.22;0.22;;;;;;;;;;4960966;28;20428;-85
2023/10/11 09:25:22;;;;;;;0.20;0.20;;;;;;;;;;4958208;28;20085;-86
2023/10/11 09:27:51;;;;;;;0.15;0.15;;;;;;;;;;4958609;28;20046;-86
2023/10/11 09:30:21;;;;;;;0.10;0.10;;;;;;;;;;4942901;28;20047;-86
2023/10/11 09:32:53;;;;;;;0.20;0.20;;;;;;;;;;4942348;28;20047;-86
2023/10/11 09:35:23;;;;;;;0.17;0.17;;;;;;;;;;4975466;28;20038;-85
2023/10/11 09:37:50;;;;;;;0.52;0.28;;;;;;;;;;4975393;28;20106;-86
2023/10/11 09:40:18;;;;;;;0.20;0.20;;;;;;;;;;4942444;28;20181;-84
2023/10/11 09:42:45;;;;;;;0.10;0.10;;;;;;;;;;4942251;28;20082;-85
2023/10/11 09:45:16;;;;;;;0.10;0.10;;;;;;;;;;4941976;28;20054;-86
2023/10/11 09:47:43;;;;;;;1.30;1.10;;;;;;;;;;4943141;28;20055;-86
2023/10/11 09:50:14;;;;;;;0.20;0.20;;;;;;;;;;4942155;28;20042;-86
2023/10/11 09:52:45;;;;;;;0.10;0.10;;;;;;;;;;4957957;28;20144;-86
2023/10/11 09:55:17;;;;;;;0.60;0.47;;;;;;;;;;4927540;28;20120;-86
2023/10/11 09:57:50;;;;;;;0.30;0.30;;;;;;;;;;4927135;28;20046;-85
2023/10/11 10:00:36;;;;;;;0.20;0.20;;;;;;;;;;4975564;28;20058;-85
2023/10/11 10:03:04;;;;;;;0.22;0.22;;;;;;;;;;4976582;28;20495;-84
2023/10/11 10:05:50;;;;;;;0.10;0.10;;;;;;;;;;4976236;28;20046;-83
2023/10/11 10:08:16;;;;;;;0.30;0.22;;;;;;;;;;4957763;28;20053;-84
2023/10/11 10:11:02;;;;;;;0.20;0.20;;;;;;;;;;4957657;28;20129;-84
2023/10/11 10:13:28;;;;;;;0.10;0.10;;;;;;;;;;4957656;28;20054;-84
2023/10/11 10:15:57;;;;;;;0.25;0.25;;;;;;;;;;4974805;28;20043;-84
2023/10/11 10:18:24;;;;;;;0.20;0.20;;;;;;;;;;4957974;28;20089;-83
2023/10/11 10:21:02;;;;;;;0.15;0.15;;;;;;;;;;4926156;28;20093;-85
2023/10/11 10:23:29;;;;;;;0.10;0.10;;;;;;;;;;4942286;28;20043;-86
2023/10/11 10:26:04;;;;;;;0.45;0.28;;;;;;;;;;4941601;28;20601;-86
2023/10/11 10:28:36;;;;;;;0.25;0.25;;;;;;;;;;4957221;28;20039;-86
2023/10/11 10:31:09;;;;;;;0.30;0.30;;;;;;;;;;4974457;28;20421;-86
2023/10/11 10:33:35;;;;;;;0.22;0.22;;;;;;;;;;4957412;28;20389;-86
2023/10/11 10:36:28;;;;;;;0.43;0.43;;;;;;;;;;4941519;28;20058;-86
2023/10/11 10:39:01;;;;;;;0.65;0.35;;;;;;;;;;4941404;28;20046;-86
2023/10/11 10:41:31;;;;;;;0.10;0.10;;;;;;;;;;4957329;28;20082;-86
2023/10/11 10:44:13;;;;;;;0.10;0.10;;;;;;;;;;4956666;28;20109;-87
2023/10/11 10:46:55;;;;;;;0.22;0.20;;;;;;;;;;4941045;28;20146;-87
2023/10/11 10:49:21;;;;;;;0.13;0.13;;;;;;;;;;4942395;28;20124;-86
2023/10/11 10:51:48;;;;;;;0.10;0.10;;;;;;;;;;4940922;28;20186;-86
2023/10/11 10:54:14;;;;;;;0.10;0.10;;;;;;;;;;4973233;28;20050;-86
2023/10/11 10:56:53;;;;;;;0.20;0.20;;;;;;;;;;4924756;28;20053;-87
2023/10/11 10:59:22;;;;;;;0.10;0.10;;;;;;;;;;4928481;29;20078;-86
2023/10/11 11:01:48;;;;;;;0.25;0.25;;;;;;;;;;4922243;29;20039;-87
2023/10/11 11:04:15;;;;;;;0.10;0.10;;;;;;;;;;4921887;29;20075;-86
2023/10/11 11:06:44;;;;;;;0.20;0.20;;;;;;;;;;4921616;29;20443;-86
2023/10/11 11:09:15;;;;;;;0.25;0.25;;;;;;;;;;4922094;29;20523;-86
2023/10/11 11:11:44;;;;;;;0.20;0.20;;;;;;;;;;4922283;29;20055;-86
2023/10/11 11:14:11;;;;;;;0.20;0.20;;;;;;;;;;4937412;29;20503;-87
2023/10/11 11:16:41;;;;;;;0.52;0.40;;;;;;;;;;4937189;29;20051;-87
2023/10/11 11:19:16;;;;;;;0.10;0.10;;;;;;;;;;4931952;28;20058;-87
2023/10/11 11:21:46;;;;;;;0.10;0.10;;;;;;;;;;4940250;28;20066;-88
2023/10/11 11:24:17;;;;;;;0.20;0.20;;;;;;;;;;4932763;28;20368;-87
2023/10/11 11:26:43;;;;;;;0.40;0.32;;;;;;;;;;4924766;28;20486;-86
2023/10/11 11:29:14;;;;;;;0.10;0.10;;;;;;;;;;4956363;28;20081;-86
2023/10/11 11:31:52;;;;;;;1.30;0.98;;;;;;;;;;4941435;28;20050;-87
2023/10/11 11:34:27;;;;;;;0.10;0.10;;;;;;;;;;4956545;28;20046;-87
2023/10/11 11:36:57;;;;;;;0.20;0.20;;;;;;;;;;4942971;28;20045;-87
2023/10/11 11:41:57;;;;;;;0.30;0.30;;;;;;;;;;4969945;28;20082;-87
2023/10/11 11:44:23;;;;;;;0.10;0.10;;;;;;;;;;4955069;28;20074;-87
2023/10/11 11:46:53;;;;;;;0.30;0.30;;;;;;;;;;4935121;28;20083;-86
2023/10/11 11:49:23;;;;;;;0.30;0.30;;;;;;;;;;4954315;28;20062;-86
2023/10/11 11:51:51;;;;;;;0.22;0.22;;;;;;;;;;4939661;28;20512;-86
2023/10/11 11:54:19;;;;;;;0.20;0.20;;;;;;;;;;4955995;28;20133;-86
2023/10/11 11:56:45;;;;;;;0.28;0.28;;;;;;;;;;4943613;28;20107;-86
2023/10/11 11:59:17;;;;;;;0.20;0.20;;;;;;;;;;4959990;28;20085;-85
2023/10/11 12:01:53;;;;;;;0.20;0.20;;;;;;;;;;4944271;28;20072;-85
2023/10/11 12:04:20;;;;;;;0.20;0.20;;;;;;;;;;4944344;28;20046;-85
2023/10/11 12:06:47;;;;;;;0.32;0.32;;;;;;;;;;4958948;28;20126;-85
2023/10/11 12:09:22;;;;;;;0.30;0.30;;;;;;;;;;4943473;28;20053;-90
2023/10/11 12:11:53;;;;;;;0.30;0.30;;;;;;;;;;4943489;28;20035;-85
2023/10/11 12:14:23;;;;;;;0.20;0.20;;;;;;;;;;4957297;29;20053;-85
2023/10/11 12:16:49;;;;;;;3.40;0.50;;;;;;;;;;4940857;28;20051;-86
2023/10/11 12:19:15;;;;;;;0.28;0.28;;;;;;;;;;4924383;29;20043;-85
2023/10/11 12:21:41;;;;;;;0.20;0.20;;;;;;;;;;4940169;29;20054;-86
2023/10/11 12:24:11;;;;;;;0.10;0.10;;;;;;;;;;4958863;28;20039;-86
2023/10/11 12:26:41;;;;;;;0.20;0.20;;;;;;;;;;4943937;28;20058;-85
2023/10/11 12:29:12;;;;;;;0.20;0.20;;;;;;;;;;4925186;29;20322;-86
2023/10/11 12:31:39;;;;;;;0.20;0.20;;;;;;;;;;4940691;29;20050;-86
2023/10/11 12:34:06;;;;;;;0.20;0.20;;;;;;;;;;4924101;29;20122;-86
2023/10/11 12:36:32;;;;;;;0.20;0.20;;;;;;;;;;4956170;29;20448;-86
2023/10/11 12:38:58;;;;;;;0.13;0.13;;;;;;;;;;4924190;29;20051;-87
2023/10/11 12:41:24;;;;;;;0.10;0.10;;;;;;;;;;4940376;29;20404;-85
2023/10/11 12:43:50;;;;;;;0.20;0.20;;;;;;;;;;4945634;28;20078;-85
2023/10/11 12:46:18;;;;;;;0.30;0.30;;;;;;;;;;4958597;28;20090;-84
2023/10/11 12:48:45;;;;;;;0.10;0.10;;;;;;;;;;4958956;28;20047;-86
2023/10/11 12:51:11;;;;;;;0.20;0.20;;;;;;;;;;4943089;28;20086;-85
2023/10/11 12:53:37;;;;;;;0.10;0.10;;;;;;;;;;4958540;28;20117;-85
2023/10/11 12:56:03;;;;;;;0.43;0.30;;;;;;;;;;4976320;28;20051;-85
2023/10/11 12:58:39;;;;;;;0.10;0.10;;;;;;;;;;4942563;28;20047;-86
2023/10/11 13:01:11;;;;;;;0.10;0.10;;;;;;;;;;4975213;28;20047;-85
2023/10/11 13:03:37;;;;;;;0.30;0.30;;;;;;;;;;4943680;28;20122;-86
2023/10/11 13:06:04;;;;;;;0.77;0.77;;;;;;;;;;4958992;28;20046;-85
2023/10/11 13:08:33;;;;;;;0.10;0.10;;;;;;;;;;4957846;28;20039;-86
2023/10/11 13:11:00;;;;;;;0.30;0.30;;;;;;;;;;4942740;28;20125;-86
2023/10/11 13:13:27;;;;;;;0.10;0.10;;;;;;;;;;4959266;28;20415;-86
2023/10/11 13:15:59;;;;;;;0.20;0.20;;;;;;;;;;4958531;28;20051;-87
2023/10/11 13:18:26;;;;;;;;;;;;;;;;;;4944212;28;20433;-86
2023/10/11 13:20:53;;;;;;;0.43;0.30;;;;;;;;;;4958202;28;19922;-86
2023/10/11 13:23:28;;;;;;;0.20;0.20;;;;;;;;;;4958007;28;20163;-85
2023/10/11 13:25:55;;;;;;;0.20;0.20;;;;;;;;;;4958224;28;20049;-86
2023/10/11 13:28:21;;;;;;;0.30;0.30;;;;;;;;;;4975571;28;20500;-86
2023/10/11 13:30:48;;;;;;;0.20;0.20;;;;;;;;;;4942700;28;20494;-85
2023/10/11 13:33:15;;;;;;;0.10;0.10;;;;;;;;;;4958635;28;20043;-85
2023/10/11 13:35:41;;;;;;;0.10;0.10;;;;;;;;;;4958296;28;20043;-86
2023/10/11 13:38:17;;;;;;;0.10;0.10;;;;;;;;;;4942453;28;20045;-86
2023/10/11 13:40:45;;;;;;;0.20;0.20;;;;;;;;;;4959610;28;20042;-87
2023/10/11 13:43:11;;;;;;;0.20;0.20;;;;;;;;;;4957869;28;20061;-86
2023/10/11 13:45:40;;;;;;;0.10;0.10;;;;;;;;;;4941830;28;20090;-87
2023/10/11 13:48:11;;;;;;;0.28;0.28;;;;;;;;;;4942093;28;20094;-86
2023/10/11 13:50:38;;;;;;;0.20;0.20;;;;;;;;;;4939185;28;20067;-88
2023/10/11 13:53:05;;;;;;;0.10;0.10;;;;;;;;;;4934964;28;20528;-89
2023/10/11 13:55:39;;;;;;;0.20;0.20;;;;;;;;;;4952238;28;20043;-88
2023/10/11 13:58:06;;;;;;;0.20;0.20;;;;;;;;;;4931926;29;20047;-86
2023/10/11 14:05:50;;;;;;;0.20;0.20;;;;;;;;;;4994186;23;20058;-89
2023/10/11 14:08:25;;;;;;;0.20;0.20;;;;;;;;;;4946026;28;20042;-89
2023/10/11 14:10:54;;;;;;;0.40;0.40;;;;;;;;;;4976549;28;20078;-88
2023/10/11 14:13:24;;;;;;;0.10;0.10;;;;;;;;;;4941679;28;20395;-89
2023/10/11 14:15:57;;;;;;;0.17;0.17;;;;;;;;;;4926055;28;20475;-88
2023/10/11 14:18:27;;;;;;;0.20;0.20;;;;;;;;;;4957469;28;20049;-90
2023/10/11 14:20:56;;;;;;;0.10;0.10;;;;;;;;;;4960642;28;20054;-90
2023/10/11 14:23:22;;;;;;;0.10;0.10;;;;;;;;;;4960530;28;20045;-90
2023/10/11 14:25:57;;;;;;;0.10;0.10;;;;;;;;;;4958799;28;20429;-89
2023/10/11 14:28:26;;;;;;;0.10;0.10;;;;;;;;;;4926321;28;20138;-87
2023/10/11 14:30:52;;;;;;;0.10;0.10;;;;;;;;;;4952628;28;20045;-92
2023/10/11 14:33:19;;;;;;;0.10;0.10;;;;;;;;;;4961155;28;20078;-90
2023/10/11 14:35:46;;;;;;;0.10;0.10;;;;;;;;;;4945114;28;20463;-90
2023/10/11 14:38:16;;;;;;;0.20;0.20;;;;;;;;;;4960379;28;20066;-89
2023/10/11 14:40:43;;;;;;;0.20;0.20;;;;;;;;;;4939224;28;20038;-89
2023/10/11 14:43:12;;;;;;;0.20;0.20;;;;;;;;;;4960754;28;20046;-93
2023/10/11 14:45:38;;;;;;;0.10;0.10;;;;;;;;;;4960823;28;20520;-90
2023/10/11 14:48:08;;;;;;;0.10;0.10;;;;;;;;;;4945237;28;20183;-91
2023/10/11 14:50:34;;;;;;;0.10;0.10;;;;;;;;;;4960706;28;20046;-90
2023/10/11 14:53:02;;;;;;;0.35;0.35;;;;;;;;;;4960607;28;20053;-91
2023/10/11 14:55:28;;;;;;;0.30;0.30;;;;;;;;;;4954403;28;20042;-91
2023/10/11 14:57:54;;;;;;;0.15;0.15;;;;;;;;;;4941105;28;20488;-91
2023/10/11 15:00:23;;;;;;;0.20;0.20;;;;;;;;;;4940693;28;20043;-90
2023/10/11 15:02:54;;;;;;;0.10;0.10;;;;;;;;;;4940846;28;20046;-90
2023/10/11 15:05:20;;;;;;;0.13;0.13;;;;;;;;;;4940517;28;20526;-91
2023/10/11 15:07:47;;;;;;;0.35;0.32;;;;;;;;;;4940643;28;20117;-90
2023/10/11 15:10:13;;;;;;;0.13;0.13;;;;;;;;;;4941038;28;20046;-91
2023/10/11 15:12:41;;;;;;;0.10;0.10;;;;;;;;;;4941500;28;20050;-91
2023/10/11 15:15:10;;;;;;;0.10;0.10;;;;;;;;;;4944216;28;20478;-92
2023/10/11 15:17:36;;;;;;;0.20;0.20;;;;;;;;;;4942427;28;20047;-92
2023/10/11 15:20:03;;;;;;;0.20;0.20;;;;;;;;;;4941816;28;20078;-95
2023/10/11 15:22:31;;;;;;;0.80;0.30;;;;;;;;;;4926627;28;20042;-94
2023/10/11 15:24:57;;;;;;;0.20;0.20;;;;;;;;;;4926096;28;20118;-95
2023/10/11 15:27:26;;;;;;;0.10;0.10;;;;;;;;;;4944115;28;20042;-96
2023/10/11 15:29:52;;;;;;;0.20;0.20;;;;;;;;;;4955573;28;20089;-94
2023/10/11 15:32:18;;;;;;;0.28;0.20;;;;;;;;;;4960959;28;20445;-90
2023/10/11 15:34:44;;;;;;;0.10;0.10;;;;;;;;;;4946003;28;20065;-92
2023/10/11 15:37:10;;;;;;;0.10;0.10;;;;;;;;;;4944548;28;20039;-92
2023/10/11 15:39:38;;;;;;;0.22;0.22;;;;;;;;;;4946289;28;20100;-91
2023/10/11 15:42:06;;;;;;;0.10;0.10;;;;;;;;;;4943671;28;20130;-89
2023/10/11 15:44:33;;;;;;;0.80;0.20;;;;;;;;;;4959470;28;20049;-89
2023/10/11 15:46:59;;;;;;;0.20;0.20;;;;;;;;;;4975573;28;20096;-88
2023/10/11 15:49:25;;;;;;;0.10;0.10;;;;;;;;;;4959413;28;20419;-88
2023/10/11 15:51:51;;;;;;;0.20;0.20;;;;;;;;;;4959304;28;20767;-87
2023/10/11 15:54:17;;;;;;;0.10;0.10;;;;;;;;;;4959153;28;20054;-88
2023/10/11 15:56:43;;;;;;;0.10;0.10;;;;;;;;;;4959358;28;20046;-89
2023/10/11 15:59:10;;;;;;;0.10;0.10;;;;;;;;;;4975092;28;20046;-88